sensor_id;sensor_type;location;lat;lon;timestamp;pressure;altitude;pressure_sealevel;temperature;humidity
19236;BME280;9752;54.270;12.470;2023-02-21T00:02:12;100965.97;;;5.80;100.00
19236;BME280;9752;54.270;12.470;2023-02-21T00:07:33;100962.63;;;5.81;100.00
19236;BME280;9752;54.270;12.470;2023-02-21T00:12:52;100957.22;;;5.89;100.00
19236;BME280;9752;54.270;12.470;2023-02-21T00:18:12;100967.13;;;5.94;100.00
19236;BME280;9752;54.270;12.470;2023-02-21T00:23:34;100978.03;;;5.92;100.00
19236;BME280;9752;54.270;12.470;2023-02-21T00:28:53;100976.25;;;6.01;100.00
19236;BME280;9752;54.270;12.470;2023-02-21T00:34:13;100953.63;;;5.97;100.00
19236;BME280;9752;54.270;12.470;2023-02-21T00:39:33;100952.06;;;5.99;100.00
19236;BME280;9752;54.270;12.470;2023-02-21T00:44:53;100959.38;;;6.04;100.00
19236;BME280;9752;54.270;12.470;2023-02-21T00:50:12;100958.69;;;6.17;100.00
19236;BME280;9752;54.270;12.470;2023-02-21T00:55:32;100944.94;;;6.06;100.00
19236;BME280;9752;54.270;12.470;2023-02-21T01:00:51;100926.53;;;6.12;100.00
19236;BME280;9752;54.270;12.470;2023-02-21T01:06:11;100908.22;;;6.19;100.00
19236;BME280;9752;54.270;12.470;2023-02-21T01:11:32;100918.63;;;6.21;100.00
19236;BME280;9752;54.270;12.470;2023-02-21T01:16:51;100947.38;;;6.15;100.00
19236;BME280;9752;54.270;12.470;2023-02-21T01:22:12;100932.69;;;6.14;100.00
19236;BME280;9752;54.270;12.470;2023-02-21T01:27:33;100954.09;;;6.13;100.00
19236;BME280;9752;54.270;12.470;2023-02-21T01:32:52;100936.81;;;6.12;100.00
19236;BME280;9752;54.270;12.470;2023-02-21T01:38:11;100962.16;;;6.18;100.00
19236;BME280;9752;54.270;12.470;2023-02-21T01:43:32;100956.88;;;6.16;100.00
19236;BME280;9752;54.270;12.470;2023-02-21T01:48:52;100925.88;;;6.15;100.00
19236;BME280;9752;54.270;12.470;2023-02-21T01:54:12;100918.25;;;6.16;100.00
19236;BME280;9752;54.270;12.470;2023-02-21T01:59:33;100899.53;;;6.07;100.00
19236;BME280;9752;54.270;12.470;2023-02-21T02:04:54;100921.16;;;6.09;100.00
19236;BME280;9752;54.270;12.470;2023-02-21T02:10:13;100904.13;;;6.11;100.00
19236;BME280;9752;54.270;12.470;2023-02-21T02:15:42;100909.69;;;6.05;100.00
19236;BME280;9752;54.270;12.470;2023-02-21T02:21:10;100924.22;;;6.05;100.00
19236;BME280;9752;54.270;12.470;2023-02-21T02:26:38;100924.53;;;5.98;100.00
19236;BME280;9752;54.270;12.470;2023-02-21T02:37:33;100919.91;;;5.83;100.00
19236;BME280;9752;54.270;12.470;2023-02-21T02:42:45;100935.09;;;5.80;100.00
19236;BME280;9752;54.270;12.470;2023-02-21T02:47:57;100942.19;;;5.83;100.00
19236;BME280;9752;54.270;12.470;2023-02-21T02:53:04;100946.91;;;5.89;100.00
19236;BME280;9752;54.270;12.470;2023-02-21T02:58:08;100960.81;;;5.91;100.00
19236;BME280;9752;54.270;12.470;2023-02-21T03:08:50;100934.47;;;5.73;100.00
19236;BME280;9752;54.270;12.470;2023-02-21T03:13:57;100935.75;;;5.78;100.00
19236;BME280;9752;54.270;12.470;2023-02-21T03:19:08;100928.69;;;5.75;100.00
19236;BME280;9752;54.270;12.470;2023-02-21T03:24:14;100922.53;;;5.63;100.00
19236;BME280;9752;54.270;12.470;2023-02-21T03:29:18;100929.63;;;5.65;100.00
19236;BME280;9752;54.270;12.470;2023-02-21T03:34:21;100917.25;;;5.61;100.00
19236;BME280;9752;54.270;12.470;2023-02-21T03:39:24;100940.13;;;5.68;100.00
19236;BME280;9752;54.270;12.470;2023-02-21T03:44:26;100965.25;;;5.71;100.00
19236;BME280;9752;54.270;12.470;2023-02-21T03:49:28;100961.88;;;5.72;100.00
19236;BME280;9752;54.270;12.470;2023-02-21T03:54:31;100961.88;;;5.82;100.00
19236;BME280;9752;54.270;12.470;2023-02-21T03:59:34;100981.03;;;5.96;100.00
19236;BME280;9752;54.270;12.470;2023-02-21T04:04:36;100970.97;;;5.99;100.00
19236;BME280;9752;54.270;12.470;2023-02-21T04:09:42;100969.84;;;5.96;100.00
19236;BME280;9752;54.270;12.470;2023-02-21T04:14:48;100969.06;;;5.86;100.00
19236;BME280;9752;54.270;12.470;2023-02-21T04:19:52;100959.69;;;5.66;100.00
19236;BME280;9752;54.270;12.470;2023-02-21T04:24:55;100961.13;;;5.63;100.00
19236;BME280;9752;54.270;12.470;2023-02-21T04:29:59;100960.22;;;5.62;100.00
19236;BME280;9752;54.270;12.470;2023-02-21T04:35:01;100966.81;;;5.48;100.00
19236;BME280;9752;54.270;12.470;2023-02-21T04:40:06;100983.00;;;5.47;100.00
19236;BME280;9752;54.270;12.470;2023-02-21T04:45:09;100979.44;;;5.35;100.00
19236;BME280;9752;54.270;12.470;2023-02-21T04:50:11;100974.28;;;5.35;100.00
19236;BME280;9752;54.270;12.470;2023-02-21T04:55:14;100989.31;;;5.31;100.00
19236;BME280;9752;54.270;12.470;2023-02-21T05:00:16;100977.75;;;5.36;100.00
19236;BME280;9752;54.270;12.470;2023-02-21T05:05:18;101004.13;;;5.33;100.00
19236;BME280;9752;54.270;12.470;2023-02-21T05:10:21;101021.59;;;5.37;100.00
19236;BME280;9752;54.270;12.470;2023-02-21T05:15:23;101020.44;;;5.44;100.00
19236;BME280;9752;54.270;12.470;2023-02-21T05:20:24;101032.41;;;5.33;100.00
19236;BME280;9752;54.270;12.470;2023-02-21T05:25:27;101040.25;;;5.45;100.00
19236;BME280;9752;54.270;12.470;2023-02-21T05:30:29;101045.91;;;5.51;100.00
19236;BME280;9752;54.270;12.470;2023-02-21T05:35:31;101038.59;;;5.66;100.00
19236;BME280;9752;54.270;12.470;2023-02-21T05:40:34;101026.75;;;5.68;100.00
19236;BME280;9752;54.270;12.470;2023-02-21T05:45:36;101037.94;;;5.68;100.00
19236;BME280;9752;54.270;12.470;2023-02-21T05:50:37;101035.91;;;5.54;100.00
19236;BME280;9752;54.270;12.470;2023-02-21T05:55:41;101028.81;;;5.41;100.00
19236;BME280;9752;54.270;12.470;2023-02-21T06:00:43;101040.50;;;5.48;100.00
19236;BME280;9752;54.270;12.470;2023-02-21T06:05:44;101057.34;;;5.34;100.00
19236;BME280;9752;54.270;12.470;2023-02-21T06:10:47;101060.94;;;5.36;100.00
19236;BME280;9752;54.270;12.470;2023-02-21T06:15:49;101069.97;;;5.41;100.00
19236;BME280;9752;54.270;12.470;2023-02-21T06:20:51;101083.97;;;5.35;100.00
19236;BME280;9752;54.270;12.470;2023-02-21T06:25:54;101089.75;;;5.32;100.00
19236;BME280;9752;54.270;12.470;2023-02-21T06:30:55;101094.91;;;5.32;100.00
19236;BME280;9752;54.270;12.470;2023-02-21T06:36:02;101104.53;;;5.35;100.00
19236;BME280;9752;54.270;12.470;2023-02-21T06:41:06;101096.72;;;5.33;100.00
19236;BME280;9752;54.270;12.470;2023-02-21T06:46:08;101124.09;;;5.33;100.00
19236;BME280;9752;54.270;12.470;2023-02-21T06:51:10;101113.28;;;5.37;100.00
19236;BME280;9752;54.270;12.470;2023-02-21T06:56:15;101113.56;;;5.40;100.00
19236;BME280;9752;54.270;12.470;2023-02-21T07:01:16;101121.41;;;5.41;100.00
19236;BME280;9752;54.270;12.470;2023-02-21T07:06:19;101122.72;;;5.46;100.00
19236;BME280;9752;54.270;12.470;2023-02-21T07:11:22;101135.31;;;5.54;100.00
19236;BME280;9752;54.270;12.470;2023-02-21T07:16:24;101144.19;;;5.57;100.00
19236;BME280;9752;54.270;12.470;2023-02-21T07:21:26;101147.41;;;5.65;100.00
19236;BME280;9752;54.270;12.470;2023-02-21T07:26:29;101181.81;;;5.76;100.00
19236;BME280;9752;54.270;12.470;2023-02-21T07:31:31;101149.00;;;5.83;100.00
19236;BME280;9752;54.270;12.470;2023-02-21T07:36:33;101159.81;;;5.79;100.00
19236;BME280;9752;54.270;12.470;2023-02-21T07:41:38;101178.63;;;5.89;100.00
19236;BME280;9752;54.270;12.470;2023-02-21T07:46:43;101164.94;;;5.90;100.00
19236;BME280;9752;54.270;12.470;2023-02-21T07:51:45;101169.38;;;6.01;100.00
19236;BME280;9752;54.270;12.470;2023-02-21T07:56:49;101204.16;;;6.06;100.00
19236;BME280;9752;54.270;12.470;2023-02-21T08:01:51;101193.06;;;6.17;100.00
19236;BME280;9752;54.270;12.470;2023-02-21T08:06:57;101186.38;;;6.19;100.00
19236;BME280;9752;54.270;12.470;2023-02-21T08:12:01;101205.56;;;6.33;100.00
19236;BME280;9752;54.270;12.470;2023-02-21T08:17:02;101226.56;;;6.28;100.00
19236;BME280;9752;54.270;12.470;2023-02-21T08:22:04;101218.97;;;6.19;100.00
19236;BME280;9752;54.270;12.470;2023-02-21T08:27:07;101226.81;;;6.31;100.00
19236;BME280;9752;54.270;12.470;2023-02-21T08:32:09;101229.53;;;6.32;100.00
19236;BME280;9752;54.270;12.470;2023-02-21T08:37:11;101222.31;;;6.28;100.00
19236;BME280;9752;54.270;12.470;2023-02-21T08:42:18;101227.31;;;6.37;100.00
19236;BME280;9752;54.270;12.470;2023-02-21T08:47:19;101237.38;;;6.44;100.00
19236;BME280;9752;54.270;12.470;2023-02-21T08:52:21;101252.44;;;6.50;100.00
19236;BME280;9752;54.270;12.470;2023-02-21T08:57:24;101264.97;;;6.45;100.00
19236;BME280;9752;54.270;12.470;2023-02-21T09:02:26;101265.06;;;6.47;100.00
19236;BME280;9752;54.270;12.470;2023-02-21T09:07:29;101263.66;;;6.60;100.00
19236;BME280;9752;54.270;12.470;2023-02-21T09:12:34;101271.75;;;6.75;100.00
19236;BME280;9752;54.270;12.470;2023-02-21T09:17:36;101261.44;;;6.75;100.00
19236;BME280;9752;54.270;12.470;2023-02-21T09:22:37;101264.16;;;6.87;100.00
19236;BME280;9752;54.270;12.470;2023-02-21T09:27:40;101262.47;;;6.88;100.00
19236;BME280;9752;54.270;12.470;2023-02-21T09:32:42;101275.38;;;6.77;100.00
19236;BME280;9752;54.270;12.470;2023-02-21T09:37:45;101293.78;;;6.92;100.00
19236;BME280;9752;54.270;12.470;2023-02-21T09:42:50;101292.00;;;6.91;100.00
19236;BME280;9752;54.270;12.470;2023-02-21T09:47:55;101309.63;;;7.17;100.00
19236;BME280;9752;54.270;12.470;2023-02-21T09:52:59;101311.41;;;7.18;100.00
19236;BME280;9752;54.270;12.470;2023-02-21T09:58:02;101308.41;;;7.34;100.00
19236;BME280;9752;54.270;12.470;2023-02-21T10:03:15;101328.25;;;7.46;100.00
19236;BME280;9752;54.270;12.470;2023-02-21T10:08:27;101325.41;;;7.42;100.00
19236;BME280;9752;54.270;12.470;2023-02-21T10:13:40;101322.56;;;7.50;100.00
19236;BME280;9752;54.270;12.470;2023-02-21T10:18:47;101318.75;;;7.24;100.00
19236;BME280;9752;54.270;12.470;2023-02-21T10:23:52;101320.69;;;7.16;100.00
19236;BME280;9752;54.270;12.470;2023-02-21T10:28:59;101342.75;;;7.23;100.00
19236;BME280;9752;54.270;12.470;2023-02-21T10:34:02;101329.94;;;7.35;100.00
19236;BME280;9752;54.270;12.470;2023-02-21T10:39:10;101350.28;;;7.52;100.00
19236;BME280;9752;54.270;12.470;2023-02-21T10:44:18;101349.97;;;7.27;100.00
19236;BME280;9752;54.270;12.470;2023-02-21T10:49:27;101343.25;;;7.29;100.00
19236;BME280;9752;54.270;12.470;2023-02-21T10:54:31;101385.78;;;7.45;100.00
19236;BME280;9752;54.270;12.470;2023-02-21T10:59:35;101355.25;;;7.29;100.00
19236;BME280;9752;54.270;12.470;2023-02-21T11:04:38;101365.19;;;7.34;100.00
19236;BME280;9752;54.270;12.470;2023-02-21T11:09:41;101368.66;;;7.24;100.00
19236;BME280;9752;54.270;12.470;2023-02-21T11:15:03;101379.88;;;7.35;100.00
19236;BME280;9752;54.270;12.470;2023-02-21T11:20:16;101385.78;;;7.45;100.00
19236;BME280;9752;54.270;12.470;2023-02-21T11:25:24;101387.03;;;7.60;100.00
19236;BME280;9752;54.270;12.470;2023-02-21T11:30:29;101362.75;;;7.68;100.00
19236;BME280;9752;54.270;12.470;2023-02-21T11:35:33;101364.88;;;7.52;100.00
19236;BME280;9752;54.270;12.470;2023-02-21T11:40:41;101376.19;;;7.96;100.00
19236;BME280;9752;54.270;12.470;2023-02-21T11:45:52;101368.00;;;7.80;100.00
19236;BME280;9752;54.270;12.470;2023-02-21T11:51:03;101379.31;;;7.92;100.00
19236;BME280;9752;54.270;12.470;2023-02-21T11:56:16;101385.75;;;7.65;100.00
19236;BME280;9752;54.270;12.470;2023-02-21T12:01:24;101392.41;;;8.16;100.00
19236;BME280;9752;54.270;12.470;2023-02-21T12:06:33;101376.09;;;7.95;100.00
19236;BME280;9752;54.270;12.470;2023-02-21T12:11:53;101386.19;;;7.81;100.00
19236;BME280;9752;54.270;12.470;2023-02-21T12:17:08;101398.25;;;7.60;100.00
19236;BME280;9752;54.270;12.470;2023-02-21T12:22:22;101377.72;;;7.72;100.00
19236;BME280;9752;54.270;12.470;2023-02-21T12:27:36;101385.56;;;7.74;100.00
19236;BME280;9752;54.270;12.470;2023-02-21T12:32:49;101387.56;;;7.56;100.00
19236;BME280;9752;54.270;12.470;2023-02-21T12:37:56;101392.47;;;7.63;100.00
19236;BME280;9752;54.270;12.470;2023-02-21T12:43:16;101398.25;;;8.03;100.00
19236;BME280;9752;54.270;12.470;2023-02-21T12:48:30;101395.09;;;7.85;100.00
19236;BME280;9752;54.270;12.470;2023-02-21T12:53:37;101417.13;;;7.59;100.00
19236;BME280;9752;54.270;12.470;2023-02-21T12:58:43;101407.28;;;7.76;100.00
19236;BME280;9752;54.270;12.470;2023-02-21T13:03:59;101379.16;;;7.69;100.00
19236;BME280;9752;54.270;12.470;2023-02-21T13:09:12;101389.84;;;7.73;100.00
19236;BME280;9752;54.270;12.470;2023-02-21T13:14:18;101410.69;;;7.97;100.00
19236;BME280;9752;54.270;12.470;2023-02-21T13:19:24;101413.50;;;8.00;100.00
19236;BME280;9752;54.270;12.470;2023-02-21T13:24:44;101407.16;;;7.64;100.00
19236;BME280;9752;54.270;12.470;2023-02-21T13:29:48;101420.34;;;7.67;100.00
19236;BME280;9752;54.270;12.470;2023-02-21T13:34:55;101434.47;;;7.40;100.00
19236;BME280;9752;54.270;12.470;2023-02-21T13:40:04;101423.44;;;7.63;100.00
19236;BME280;9752;54.270;12.470;2023-02-21T13:45:15;101428.56;;;7.84;100.00
19236;BME280;9752;54.270;12.470;2023-02-21T13:50:47;101415.66;;;7.73;100.00
19236;BME280;9752;54.270;12.470;2023-02-21T13:56:12;101412.34;;;8.29;100.00
19236;BME280;9752;54.270;12.470;2023-02-21T14:01:23;101426.69;;;8.03;100.00
19236;BME280;9752;54.270;12.470;2023-02-21T14:06:54;101426.81;;;8.27;100.00
19236;BME280;9752;54.270;12.470;2023-02-21T14:12:01;101415.44;;;8.35;100.00
19236;BME280;9752;54.270;12.470;2023-02-21T14:17:06;101435.94;;;8.11;100.00
19236;BME280;9752;54.270;12.470;2023-02-21T14:22:13;101437.34;;;8.18;100.00
19236;BME280;9752;54.270;12.470;2023-02-21T14:27:34;101438.09;;;7.85;100.00
19236;BME280;9752;54.270;12.470;2023-02-21T14:32:40;101437.22;;;7.74;100.00
19236;BME280;9752;54.270;12.470;2023-02-21T14:37:51;101462.97;;;7.41;100.00
19236;BME280;9752;54.270;12.470;2023-02-21T14:43:04;101459.34;;;7.70;100.00
19236;BME280;9752;54.270;12.470;2023-02-21T14:53:59;101452.00;;;7.23;100.00
19236;BME280;9752;54.270;12.470;2023-02-21T14:59:20;101461.16;;;6.99;100.00
19236;BME280;9752;54.270;12.470;2023-02-21T15:04:33;101453.44;;;7.20;100.00
19236;BME280;9752;54.270;12.470;2023-02-21T15:09:38;101466.06;;;6.96;100.00
19236;BME280;9752;54.270;12.470;2023-02-21T15:14:45;101468.66;;;6.96;100.00
19236;BME280;9752;54.270;12.470;2023-02-21T15:20:00;101481.22;;;6.73;100.00
19236;BME280;9752;54.270;12.470;2023-02-21T15:25:15;101472.75;;;6.84;100.00
19236;BME280;9752;54.270;12.470;2023-02-21T15:30:18;101472.50;;;6.91;100.00
19236;BME280;9752;54.270;12.470;2023-02-21T15:35:25;101486.06;;;6.99;100.00
19236;BME280;9752;54.270;12.470;2023-02-21T15:40:29;101476.50;;;6.98;100.00
19236;BME280;9752;54.270;12.470;2023-02-21T15:45:34;101482.53;;;6.78;100.00
19236;BME280;9752;54.270;12.470;2023-02-21T15:50:40;101495.00;;;6.73;100.00
19236;BME280;9752;54.270;12.470;2023-02-21T15:55:46;101492.56;;;6.64;100.00
19236;BME280;9752;54.270;12.470;2023-02-21T16:01:01;101497.63;;;6.34;100.00
19236;BME280;9752;54.270;12.470;2023-02-21T16:06:16;101496.97;;;6.07;100.00
19236;BME280;9752;54.270;12.470;2023-02-21T16:11:19;101504.41;;;6.04;100.00
19236;BME280;9752;54.270;12.470;2023-02-21T16:16:21;101518.53;;;5.99;100.00
19236;BME280;9752;54.270;12.470;2023-02-21T16:21:26;101510.44;;;5.85;100.00
19236;BME280;9752;54.270;12.470;2023-02-21T16:26:31;101525.66;;;6.01;100.00
19236;BME280;9752;54.270;12.470;2023-02-21T16:31:33;101531.50;;;6.09;100.00
19236;BME280;9752;54.270;12.470;2023-02-21T16:36:36;101538.56;;;6.12;100.00
19236;BME280;9752;54.270;12.470;2023-02-21T16:41:41;101540.50;;;6.14;100.00
19236;BME280;9752;54.270;12.470;2023-02-21T16:46:43;101546.44;;;6.13;100.00
19236;BME280;9752;54.270;12.470;2023-02-21T16:51:45;101555.22;;;6.15;100.00
19236;BME280;9752;54.270;12.470;2023-02-21T16:56:50;101560.16;;;6.22;100.00
19236;BME280;9752;54.270;12.470;2023-02-21T17:01:52;101568.34;;;6.18;100.00
19236;BME280;9752;54.270;12.470;2023-02-21T17:06:55;101576.88;;;6.17;100.00
19236;BME280;9752;54.270;12.470;2023-02-21T17:11:59;101587.91;;;6.16;100.00
19236;BME280;9752;54.270;12.470;2023-02-21T17:17:01;101586.38;;;6.18;100.00
19236;BME280;9752;54.270;12.470;2023-02-21T17:22:03;101594.25;;;6.20;100.00
19236;BME280;9752;54.270;12.470;2023-02-21T17:27:06;101597.75;;;6.20;100.00
19236;BME280;9752;54.270;12.470;2023-02-21T17:32:08;101603.13;;;6.13;100.00
19236;BME280;9752;54.270;12.470;2023-02-21T17:37:09;101608.97;;;6.21;100.00
19236;BME280;9752;54.270;12.470;2023-02-21T17:42:14;101612.22;;;6.10;100.00
19236;BME280;9752;54.270;12.470;2023-02-21T17:47:17;101609.16;;;6.14;100.00
19236;BME280;9752;54.270;12.470;2023-02-21T17:52:20;101619.25;;;6.21;100.00
19236;BME280;9752;54.270;12.470;2023-02-21T17:57:23;101629.28;;;6.18;100.00
19236;BME280;9752;54.270;12.470;2023-02-21T18:02:24;101624.41;;;6.21;100.00
19236;BME280;9752;54.270;12.470;2023-02-21T18:07:26;101621.84;;;6.21;100.00
19236;BME280;9752;54.270;12.470;2023-02-21T18:12:33;101634.56;;;6.19;100.00
19236;BME280;9752;54.270;12.470;2023-02-21T18:17:35;101636.09;;;6.17;100.00
19236;BME280;9752;54.270;12.470;2023-02-21T18:22:37;101634.91;;;6.14;100.00
19236;BME280;9752;54.270;12.470;2023-02-21T18:27:40;101639.19;;;6.13;100.00
19236;BME280;9752;54.270;12.470;2023-02-21T18:32:42;101646.47;;;6.09;100.00
19236;BME280;9752;54.270;12.470;2023-02-21T18:37:44;101647.09;;;6.06;100.00
19236;BME280;9752;54.270;12.470;2023-02-21T18:42:47;101663.53;;;5.98;100.00
19236;BME280;9752;54.270;12.470;2023-02-21T18:47:49;101658.94;;;6.04;100.00
19236;BME280;9752;54.270;12.470;2023-02-21T18:52:51;101670.44;;;6.08;100.00
19236;BME280;9752;54.270;12.470;2023-02-21T18:57:54;101671.66;;;6.02;100.00
19236;BME280;9752;54.270;12.470;2023-02-21T19:02:56;101670.28;;;6.06;100.00
19236;BME280;9752;54.270;12.470;2023-02-21T19:07:58;101663.59;;;6.08;100.00
19236;BME280;9752;54.270;12.470;2023-02-21T19:13:01;101663.09;;;6.12;100.00
19236;BME280;9752;54.270;12.470;2023-02-21T19:18:04;101666.03;;;6.06;100.00
19236;BME280;9752;54.270;12.470;2023-02-21T19:23:06;101672.69;;;6.04;100.00
19236;BME280;9752;54.270;12.470;2023-02-21T19:28:09;101669.16;;;6.13;100.00
19236;BME280;9752;54.270;12.470;2023-02-21T19:33:10;101671.13;;;6.15;100.00
19236;BME280;9752;54.270;12.470;2023-02-21T19:38:12;101666.13;;;6.17;100.00
19236;BME280;9752;54.270;12.470;2023-02-21T19:43:15;101676.78;;;6.11;100.00
19236;BME280;9752;54.270;12.470;2023-02-21T19:48:18;101689.00;;;6.14;100.00
19236;BME280;9752;54.270;12.470;2023-02-21T19:53:21;101684.03;;;6.06;100.00
19236;BME280;9752;54.270;12.470;2023-02-21T19:58:24;101691.94;;;6.08;100.00
19236;BME280;9752;54.270;12.470;2023-02-21T20:03:27;101688.88;;;6.12;100.00
19236;BME280;9752;54.270;12.470;2023-02-21T20:08:29;101697.97;;;6.09;100.00
19236;BME280;9752;54.270;12.470;2023-02-21T20:13:32;101698.41;;;6.13;100.00
19236;BME280;9752;54.270;12.470;2023-02-21T20:18:35;101696.78;;;6.05;100.00
19236;BME280;9752;54.270;12.470;2023-02-21T20:23:36;101697.97;;;6.09;100.00
19236;BME280;9752;54.270;12.470;2023-02-21T20:28:40;101702.56;;;5.94;100.00
19236;BME280;9752;54.270;12.470;2023-02-21T20:33:42;101707.91;;;5.95;100.00
19236;BME280;9752;54.270;12.470;2023-02-21T20:38:43;101716.84;;;5.90;100.00
19236;BME280;9752;54.270;12.470;2023-02-21T20:43:46;101715.03;;;5.89;100.00
19236;BME280;9752;54.270;12.470;2023-02-21T20:48:48;101716.84;;;5.90;100.00
19236;BME280;9752;54.270;12.470;2023-02-21T20:53:50;101723.38;;;5.86;100.00
19236;BME280;9752;54.270;12.470;2023-02-21T20:58:53;101727.59;;;5.86;100.00
19236;BME280;9752;54.270;12.470;2023-02-21T21:03:55;101720.50;;;5.83;100.00
19236;BME280;9752;54.270;12.470;2023-02-21T21:08:57;101719.88;;;5.86;100.00
19236;BME280;9752;54.270;12.470;2023-02-21T21:14:00;101721.41;;;5.84;100.00
19236;BME280;9752;54.270;12.470;2023-02-21T21:19:02;101722.50;;;5.77;100.00
19236;BME280;9752;54.270;12.470;2023-02-21T21:24:04;101730.41;;;5.70;100.00
19236;BME280;9752;54.270;12.470;2023-02-21T21:29:08;101732.97;;;5.70;100.00
19236;BME280;9752;54.270;12.470;2023-02-21T21:34:10;101742.06;;;5.75;100.00
19236;BME280;9752;54.270;12.470;2023-02-21T21:39:11;101745.69;;;5.68;100.00
19236;BME280;9752;54.270;12.470;2023-02-21T21:44:15;101747.81;;;5.73;100.00
19236;BME280;9752;54.270;12.470;2023-02-21T21:49:19;101751.16;;;5.72;100.00
19236;BME280;9752;54.270;12.470;2023-02-21T21:54:21;101756.31;;;5.63;100.00
19236;BME280;9752;54.270;12.470;2023-02-21T21:59:26;101752.44;;;5.58;100.00
19236;BME280;9752;54.270;12.470;2023-02-21T22:04:29;101759.06;;;5.56;100.00
19236;BME280;9752;54.270;12.470;2023-02-21T22:09:31;101758.00;;;5.54;100.00
19236;BME280;9752;54.270;12.470;2023-02-21T22:14:34;101763.94;;;5.53;100.00
19236;BME280;9752;54.270;12.470;2023-02-21T22:19:36;101762.72;;;5.58;100.00
19236;BME280;9752;54.270;12.470;2023-02-21T22:24:38;101761.19;;;5.60;100.00
19236;BME280;9752;54.270;12.470;2023-02-21T22:29:41;101766.19;;;5.50;100.00
19236;BME280;9752;54.270;12.470;2023-02-21T22:34:43;101770.28;;;5.47;100.00
19236;BME280;9752;54.270;12.470;2023-02-21T22:39:45;101770.16;;;5.46;100.00
19236;BME280;9752;54.270;12.470;2023-02-21T22:44:48;101774.25;;;5.44;100.00
19236;BME280;9752;54.270;12.470;2023-02-21T22:49:50;101774.72;;;5.40;100.00
19236;BME280;9752;54.270;12.470;2023-02-21T22:54:52;101773.81;;;5.31;100.00
19236;BME280;9752;54.270;12.470;2023-02-21T22:59:55;101775.50;;;5.21;100.00
19236;BME280;9752;54.270;12.470;2023-02-21T23:04:57;101786.25;;;5.26;100.00
19236;BME280;9752;54.270;12.470;2023-02-21T23:09:58;101793.66;;;5.23;100.00
19236;BME280;9752;54.270;12.470;2023-02-21T23:15:02;101787.44;;;5.21;100.00
19236;BME280;9752;54.270;12.470;2023-02-21T23:20:04;101800.63;;;5.24;100.00
19236;BME280;9752;54.270;12.470;2023-02-21T23:25:17;101797.59;;;5.28;100.00
19236;BME280;9752;54.270;12.470;2023-02-21T23:30:25;101792.44;;;5.28;100.00
19236;BME280;9752;54.270;12.470;2023-02-21T23:35:27;101793.06;;;5.25;100.00
19236;BME280;9752;54.270;12.470;2023-02-21T23:40:29;101792.59;;;5.21;100.00
19236;BME280;9752;54.270;12.470;2023-02-21T23:45:32;101792.47;;;5.11;100.00
19236;BME280;9752;54.270;12.470;2023-02-21T23:50:34;101801.84;;;5.01;100.00
19236;BME280;9752;54.270;12.470;2023-02-21T23:55:36;101798.22;;;4.91;100.00
